createdAt,value
2023-04-07T00:03:17.971Z,28.50
2023-04-07T00:08:11.220Z,25.20
2023-04-07T00:13:04.473Z,25.90
2023-04-07T00:17:57.415Z,30.20
2023-04-07T00:22:50.664Z,24.00
2023-04-07T00:27:43.474Z,27.00
2023-04-07T00:32:36.626Z,27.00
2023-04-07T00:37:29.711Z,28.40
2023-04-07T00:42:25.461Z,26.80
2023-04-07T00:47:18.305Z,28.90
2023-04-07T00:52:12.570Z,28.30
2023-04-07T00:57:05.557Z,29.00
2023-04-07T01:07:47.500Z,25.40
2023-04-07T01:12:49.114Z,32.70
2023-04-07T01:17:54.544Z,33.20
2023-04-07T01:22:54.590Z,29.10
2023-04-07T01:28:04.227Z,29.90
2023-04-07T01:32:59.523Z,30.00
2023-04-07T01:37:53.747Z,32.30
2023-04-07T01:42:48.813Z,30.50
2023-04-07T01:47:45.123Z,31.50
2023-04-07T01:52:39.103Z,33.80
2023-04-07T01:57:32.280Z,36.50
2023-04-07T02:02:30.712Z,28.80
2023-04-07T02:07:41.439Z,32.90
2023-04-07T02:12:36.606Z,34.50
2023-04-07T02:17:39.331Z,36.10
2023-04-07T02:22:34.309Z,35.30
2023-04-07T02:27:27.133Z,35.00
2023-04-07T02:32:20.076Z,37.30
2023-04-07T02:37:12.970Z,35.30
2023-04-07T02:42:05.953Z,40.60
2023-04-07T02:46:58.760Z,39.40
2023-04-07T02:51:51.557Z,41.60
2023-04-07T02:56:44.354Z,41.30
2023-04-07T03:01:37.266Z,40.50
2023-04-07T03:06:30.215Z,38.80
2023-04-07T03:11:31.298Z,40.10
2023-04-07T03:16:25.746Z,41.70
2023-04-07T03:21:25.993Z,39.90
2023-04-07T03:26:18.910Z,39.80
2023-04-07T03:31:11.837Z,44.30
2023-04-07T03:36:04.922Z,41.30
2023-04-07T03:40:58.475Z,39.10
2023-04-07T03:45:51.951Z,41.30
2023-04-07T03:50:47.720Z,42.50
2023-04-07T03:55:43.760Z,43.60
2023-04-07T04:00:44.063Z,41.90
2023-04-07T04:05:37.454Z,40.80
2023-04-07T04:10:30.482Z,41.40
2023-04-07T04:15:24.030Z,43.80
2023-04-07T04:20:17.174Z,41.70
2023-04-07T04:25:13.452Z,41.80
2023-04-07T04:30:09.544Z,38.00
2023-04-07T04:35:14.810Z,38.10
2023-04-07T04:40:16.055Z,36.30
2023-04-07T04:45:10.385Z,42.30
2023-04-07T04:50:04.654Z,41.30
2023-04-07T04:54:59.412Z,38.40
2023-04-07T04:59:53.011Z,42.40
2023-04-07T05:04:46.373Z,41.20
2023-04-07T05:09:51.343Z,41.00
2023-04-07T05:14:45.089Z,42.50
2023-04-07T05:19:37.959Z,41.60
2023-04-07T05:24:36.931Z,43.70
2023-04-07T05:29:30.734Z,46.40
2023-04-07T05:34:24.160Z,39.20
2023-04-07T05:39:19.958Z,40.50
2023-04-07T05:44:13.694Z,37.30
2023-04-07T05:54:06.499Z,37.80
2023-04-07T05:59:00.698Z,37.20
2023-04-07T06:03:53.976Z,36.10
2023-04-07T06:08:52.024Z,34.30
2023-04-07T06:13:44.942Z,34.50
2023-04-07T06:18:38.009Z,35.80
2023-04-07T06:23:32.567Z,31.10
2023-04-07T06:28:25.579Z,31.40
2023-04-07T06:33:18.860Z,29.40
2023-04-07T06:38:12.369Z,27.70
2023-04-07T06:43:06.368Z,28.00
2023-04-07T06:48:15.706Z,29.10
2023-04-07T06:53:08.505Z,26.60
2023-04-07T06:58:02.946Z,27.70
2023-04-07T07:02:56.132Z,30.30
2023-04-07T07:07:49.062Z,31.70
2023-04-07T07:12:41.828Z,27.70
2023-04-07T07:17:34.608Z,26.40
2023-04-07T07:22:27.444Z,28.80
2023-04-07T07:27:20.309Z,27.50
2023-04-07T07:32:13.158Z,29.80
2023-04-07T07:37:06.137Z,25.30
2023-04-07T07:41:58.989Z,22.70
2023-04-07T07:46:52.264Z,21.70
2023-04-07T07:51:46.275Z,20.30
2023-04-07T07:56:39.089Z,22.70
2023-04-07T08:01:32.403Z,22.00
2023-04-07T08:06:25.486Z,21.90
2023-04-07T08:11:19.167Z,19.80
2023-04-07T08:16:12.713Z,22.80
2023-04-07T08:21:06.850Z,19.90
2023-04-07T08:25:59.839Z,21.00
2023-04-07T08:30:52.747Z,20.30
2023-04-07T08:35:45.530Z,18.20
2023-04-07T08:40:38.746Z,18.40
2023-04-07T08:45:34.710Z,16.80
2023-04-07T08:50:28.859Z,18.10
2023-04-07T08:55:22.004Z,18.00
2023-04-07T09:00:16.699Z,17.80
2023-04-07T09:05:10.310Z,18.30
2023-04-07T09:10:04.094Z,18.50
2023-04-07T09:14:57.328Z,19.20
2023-04-07T09:19:50.664Z,16.70
2023-04-07T09:24:43.730Z,16.50
2023-04-07T09:29:36.662Z,18.30
2023-04-07T09:34:34.587Z,18.40
2023-04-07T09:39:28.310Z,17.10
2023-04-07T09:44:22.829Z,16.60
2023-04-07T09:49:15.701Z,17.30
2023-04-07T09:54:08.606Z,15.70
2023-04-07T09:59:03.013Z,18.70
2023-04-07T10:03:56.649Z,16.00
2023-04-07T10:08:49.815Z,14.80
2023-04-07T10:13:43.570Z,15.90
2023-04-07T10:18:38.540Z,15.50
2023-04-07T10:23:58.162Z,14.50
2023-04-07T10:28:55.033Z,15.60
2023-04-07T10:33:51.468Z,13.80
2023-04-07T10:39:11.187Z,14.00
2023-04-07T10:44:05.283Z,13.60
2023-04-07T10:49:11.766Z,13.00
2023-04-07T10:54:23.781Z,13.10
2023-04-07T10:59:17.324Z,13.20
2023-04-07T11:04:10.317Z,12.90
2023-04-07T11:09:03.404Z,14.10
2023-04-07T11:13:56.316Z,14.00
2023-04-07T11:18:49.289Z,13.30
2023-04-07T11:23:44.582Z,14.00
2023-04-07T11:28:46.444Z,15.30
2023-04-07T11:33:42.238Z,14.40
2023-04-07T11:38:39.575Z,13.70
2023-04-07T11:43:32.451Z,14.60
2023-04-07T11:48:31.345Z,13.00
2023-04-07T11:53:32.639Z,12.50
2023-04-07T11:58:51.663Z,14.90
2023-04-07T12:04:04.892Z,12.60
2023-04-07T12:08:58.082Z,14.10
2023-04-07T12:13:51.047Z,13.10
2023-04-07T12:18:43.883Z,9.60
2023-04-07T12:23:37.350Z,6.00
2023-04-07T12:28:31.630Z,3.80
2023-04-07T12:33:24.734Z,3.50
2023-04-07T12:38:17.618Z,2.60
2023-04-07T12:43:10.990Z,2.10
2023-04-07T12:48:04.439Z,2.50
2023-04-07T12:52:59.482Z,2.20
2023-04-07T12:57:52.872Z,2.60
2023-04-07T13:02:46.357Z,2.50
2023-04-07T13:07:39.436Z,2.70
2023-04-07T13:12:32.308Z,3.80
2023-04-07T13:17:25.293Z,2.50
2023-04-07T13:22:21.625Z,3.10
2023-04-07T13:27:15.076Z,2.40
2023-04-07T13:32:13.165Z,3.00
2023-04-07T13:37:07.196Z,3.00
2023-04-07T13:42:01.266Z,2.60
2023-04-07T13:46:56.148Z,3.80
2023-04-07T13:51:49.500Z,3.00
2023-04-07T13:56:42.426Z,3.30
2023-04-07T14:01:39.123Z,3.70
2023-04-07T14:06:32.276Z,2.80
2023-04-07T14:11:25.160Z,3.10
2023-04-07T14:16:18.713Z,2.70
2023-04-07T14:21:11.649Z,2.40
2023-04-07T14:26:05.217Z,3.00
2023-04-07T14:30:58.114Z,5.50
2023-04-07T14:35:51.610Z,3.70
2023-04-07T14:40:45.393Z,3.40
2023-04-07T14:45:39.194Z,3.20
2023-04-07T14:50:34.670Z,3.90
2023-04-07T14:55:27.652Z,5.40
2023-04-07T15:00:21.007Z,3.70
2023-04-07T15:05:13.905Z,3.30
2023-04-07T15:10:07.523Z,3.30
2023-04-07T15:15:00.647Z,3.80
2023-04-07T15:19:53.467Z,3.10
2023-04-07T15:24:46.255Z,4.50
2023-04-07T15:29:42.493Z,2.90
2023-04-07T15:34:35.394Z,3.10
2023-04-07T15:39:28.241Z,5.30
2023-04-07T15:44:21.188Z,4.70
2023-04-07T15:49:14.004Z,5.40
2023-04-07T15:54:06.861Z,4.20
2023-04-07T15:58:59.660Z,5.40
2023-04-07T16:03:52.776Z,3.60
2023-04-07T16:08:45.788Z,4.40
2023-04-07T16:13:38.559Z,3.70
2023-04-07T16:18:31.409Z,3.30
2023-04-07T16:23:24.436Z,4.20
2023-04-07T16:28:17.641Z,4.90
2023-04-07T16:33:10.644Z,3.20
2023-04-07T16:38:06.381Z,3.00
2023-04-07T16:42:59.648Z,3.50
2023-04-07T16:47:52.548Z,3.50
2023-04-07T16:52:46.922Z,3.70
2023-04-07T16:57:39.771Z,5.80
2023-04-07T17:02:33.440Z,4.10
2023-04-07T17:07:26.495Z,3.70
2023-04-07T17:12:19.314Z,3.30
2023-04-07T17:17:12.182Z,4.50
2023-04-07T17:22:05.000Z,6.80
2023-04-07T17:26:57.900Z,3.70
2023-04-07T17:31:50.840Z,5.40
2023-04-07T17:36:43.647Z,4.10
2023-04-07T17:41:38.465Z,4.90
2023-04-07T17:46:32.108Z,6.30
2023-04-07T17:51:26.881Z,6.00
2023-04-07T17:56:20.439Z,4.60
2023-04-07T18:01:13.770Z,4.40
2023-04-07T18:06:08.569Z,6.00
2023-04-07T18:11:01.501Z,5.30
2023-04-07T18:15:55.209Z,4.60
2023-04-07T18:20:48.338Z,3.40
2023-04-07T18:25:41.150Z,4.10
2023-04-07T18:30:34.637Z,4.90
2023-04-07T18:35:28.660Z,4.60
2023-04-07T18:40:21.954Z,5.00
2023-04-07T18:45:14.788Z,3.80
2023-04-07T18:50:08.430Z,5.30
2023-04-07T18:55:01.249Z,5.10
2023-04-07T18:59:54.087Z,5.50
2023-04-07T19:04:46.881Z,6.00
2023-04-07T19:09:40.057Z,5.70
2023-04-07T19:14:32.861Z,8.50
2023-04-07T19:19:26.133Z,5.30
2023-04-07T19:24:18.964Z,5.40
2023-04-07T19:29:12.662Z,4.20
2023-04-07T19:34:05.475Z,5.20
2023-04-07T19:38:58.337Z,5.40
2023-04-07T19:43:51.682Z,4.90
2023-04-07T19:48:44.548Z,4.70
2023-04-07T19:53:37.641Z,5.20
2023-04-07T19:58:30.458Z,4.80
2023-04-07T20:03:24.442Z,4.20
2023-04-07T20:08:17.428Z,5.10
2023-04-07T20:13:10.602Z,5.60
2023-04-07T20:18:03.721Z,4.50
2023-04-07T20:22:56.616Z,4.10
2023-04-07T20:27:50.538Z,3.50
2023-04-07T20:32:43.615Z,3.20
2023-04-07T20:37:36.709Z,4.60
2023-04-07T20:42:29.500Z,3.70
2023-04-07T20:47:22.388Z,4.80
2023-04-07T20:52:15.275Z,5.20
2023-04-07T20:57:08.079Z,5.70
2023-04-07T21:02:01.054Z,4.80
2023-04-07T21:06:53.972Z,6.80
2023-04-07T21:11:46.874Z,4.40
2023-04-07T21:16:39.667Z,5.30
2023-04-07T21:21:32.727Z,4.60
2023-04-07T21:26:26.649Z,6.20
2023-04-07T21:31:23.634Z,4.30
2023-04-07T21:36:16.574Z,4.30
2023-04-07T21:41:09.653Z,5.40
2023-04-07T21:46:02.711Z,5.90
2023-04-07T21:50:55.696Z,5.40
2023-04-07T21:55:48.539Z,6.50
2023-04-07T22:00:42.026Z,7.40
2023-04-07T22:05:39.507Z,6.30
2023-04-07T22:10:33.014Z,5.90
2023-04-07T22:15:26.822Z,6.20
2023-04-07T22:20:19.680Z,5.30
2023-04-07T22:25:12.499Z,5.80
2023-04-07T22:30:08.694Z,6.50
2023-04-07T22:35:01.515Z,5.70
2023-04-07T22:39:54.520Z,7.00
2023-04-07T22:44:48.205Z,5.90
2023-04-07T22:49:41.061Z,6.40
2023-04-07T22:54:34.769Z,7.10
2023-04-07T22:59:27.717Z,6.30
2023-04-07T23:04:22.645Z,5.50
2023-04-07T23:09:15.798Z,6.50
2023-04-07T23:14:08.854Z,7.00
2023-04-07T23:19:02.336Z,6.50
2023-04-07T23:23:55.412Z,6.50
2023-04-07T23:28:48.797Z,8.80
2023-04-07T23:33:41.780Z,6.30
2023-04-07T23:38:36.377Z,6.70
2023-04-07T23:43:29.167Z,7.60
2023-04-07T23:48:21.961Z,7.30
2023-04-07T23:53:14.773Z,9.60
2023-04-07T23:58:07.569Z,6.70
